sensor_id;sensor_type;location;lat;lon;timestamp;P1;durP1;ratioP1;P2;durP2;ratioP2
85506;SDS011;75915;41.988;21.460;2024-03-02T00:02:16;14.82;;;7.55;;
85506;SDS011;75915;41.988;21.460;2024-03-02T00:04:44;12.50;;;6.65;;
85506;SDS011;75915;41.988;21.460;2024-03-02T00:07:11;13.13;;;7.50;;
85506;SDS011;75915;41.988;21.460;2024-03-02T00:09:40;15.18;;;7.88;;
85506;SDS011;75915;41.988;21.460;2024-03-02T00:12:06;17.83;;;9.20;;
85506;SDS011;75915;41.988;21.460;2024-03-02T00:14:32;15.50;;;8.77;;
85506;SDS011;75915;41.988;21.460;2024-03-02T00:16:57;18.63;;;9.13;;
85506;SDS011;75915;41.988;21.460;2024-03-02T00:19:25;16.67;;;9.63;;
85506;SDS011;75915;41.988;21.460;2024-03-02T00:21:51;15.02;;;8.30;;
85506;SDS011;75915;41.988;21.460;2024-03-02T00:24:30;16.65;;;8.48;;
85506;SDS011;75915;41.988;21.460;2024-03-02T00:26:58;18.98;;;9.80;;
85506;SDS011;75915;41.988;21.460;2024-03-02T00:29:23;23.73;;;10.70;;
85506;SDS011;75915;41.988;21.460;2024-03-02T00:31:50;19.42;;;8.85;;
85506;SDS011;75915;41.988;21.460;2024-03-02T00:34:20;17.42;;;10.15;;
85506;SDS011;75915;41.988;21.460;2024-03-02T00:36:48;15.05;;;8.35;;
85506;SDS011;75915;41.988;21.460;2024-03-02T00:39:17;14.95;;;8.07;;
85506;SDS011;75915;41.988;21.460;2024-03-02T00:41:43;15.23;;;8.43;;
85506;SDS011;75915;41.988;21.460;2024-03-02T00:44:11;18.05;;;11.27;;
85506;SDS011;75915;41.988;21.460;2024-03-02T00:49:05;19.38;;;10.18;;
85506;SDS011;75915;41.988;21.460;2024-03-02T00:51:50;20.10;;;11.23;;
85506;SDS011;75915;41.988;21.460;2024-03-02T00:54:24;20.58;;;11.68;;
85506;SDS011;75915;41.988;21.460;2024-03-02T00:56:52;18.65;;;10.13;;
85506;SDS011;75915;41.988;21.460;2024-03-02T00:59:21;20.60;;;9.88;;
85506;SDS011;75915;41.988;21.460;2024-03-02T01:01:48;16.10;;;9.95;;
85506;SDS011;75915;41.988;21.460;2024-03-02T01:04:16;18.20;;;9.15;;
85506;SDS011;75915;41.988;21.460;2024-03-02T01:06:42;15.82;;;9.52;;
85506;SDS011;75915;41.988;21.460;2024-03-02T01:09:09;15.43;;;8.77;;
85506;SDS011;75915;41.988;21.460;2024-03-02T01:11:35;18.98;;;7.63;;
85506;SDS011;75915;41.988;21.460;2024-03-02T01:14:00;16.38;;;8.48;;
85506;SDS011;75915;41.988;21.460;2024-03-02T01:16:26;16.20;;;8.32;;
85506;SDS011;75915;41.988;21.460;2024-03-02T01:18:51;16.05;;;8.38;;
85506;SDS011;75915;41.988;21.460;2024-03-02T01:21:17;14.43;;;9.18;;
85506;SDS011;75915;41.988;21.460;2024-03-02T01:23:42;17.38;;;9.95;;
85506;SDS011;75915;41.988;21.460;2024-03-02T01:26:08;16.08;;;7.80;;
85506;SDS011;75915;41.988;21.460;2024-03-02T01:28:34;16.23;;;8.65;;
85506;SDS011;75915;41.988;21.460;2024-03-02T01:30:59;16.75;;;8.82;;
85506;SDS011;75915;41.988;21.460;2024-03-02T01:33:27;19.40;;;8.70;;
85506;SDS011;75915;41.988;21.460;2024-03-02T01:35:53;15.35;;;8.75;;
85506;SDS011;75915;41.988;21.460;2024-03-02T01:38:20;14.43;;;8.27;;
85506;SDS011;75915;41.988;21.460;2024-03-02T01:40:46;14.32;;;7.78;;
85506;SDS011;75915;41.988;21.460;2024-03-02T01:43:11;13.98;;;8.02;;
85506;SDS011;75915;41.988;21.460;2024-03-02T01:45:37;15.73;;;8.13;;
85506;SDS011;75915;41.988;21.460;2024-03-02T01:48:06;16.77;;;8.80;;
85506;SDS011;75915;41.988;21.460;2024-03-02T01:50:33;12.45;;;6.95;;
85506;SDS011;75915;41.988;21.460;2024-03-02T01:53:00;13.05;;;7.63;;
85506;SDS011;75915;41.988;21.460;2024-03-02T01:55:29;12.43;;;6.65;;
85506;SDS011;75915;41.988;21.460;2024-03-02T01:57:55;11.63;;;6.88;;
85506;SDS011;75915;41.988;21.460;2024-03-02T02:00:22;10.98;;;6.53;;
85506;SDS011;75915;41.988;21.460;2024-03-02T02:02:51;12.02;;;6.45;;
85506;SDS011;75915;41.988;21.460;2024-03-02T02:05:17;13.55;;;7.03;;
85506;SDS011;75915;41.988;21.460;2024-03-02T02:07:43;13.07;;;7.32;;
85506;SDS011;75915;41.988;21.460;2024-03-02T02:10:10;12.40;;;7.63;;
85506;SDS011;75915;41.988;21.460;2024-03-02T02:12:37;15.77;;;7.70;;
85506;SDS011;75915;41.988;21.460;2024-03-02T02:15:21;11.57;;;6.85;;
85506;SDS011;75915;41.988;21.460;2024-03-02T02:17:47;13.30;;;6.80;;
85506;SDS011;75915;41.988;21.460;2024-03-02T02:20:12;12.98;;;7.72;;
85506;SDS011;75915;41.988;21.460;2024-03-02T02:22:38;14.07;;;7.80;;
85506;SDS011;75915;41.988;21.460;2024-03-02T02:25:06;19.83;;;9.52;;
85506;SDS011;75915;41.988;21.460;2024-03-02T02:27:31;17.42;;;9.00;;
85506;SDS011;75915;41.988;21.460;2024-03-02T02:29:57;16.20;;;10.00;;
85506;SDS011;75915;41.988;21.460;2024-03-02T02:32:24;19.27;;;10.27;;
85506;SDS011;75915;41.988;21.460;2024-03-02T02:34:53;19.30;;;10.57;;
85506;SDS011;75915;41.988;21.460;2024-03-02T02:37:19;21.63;;;10.65;;
85506;SDS011;75915;41.988;21.460;2024-03-02T02:39:45;23.55;;;11.10;;
85506;SDS011;75915;41.988;21.460;2024-03-02T02:42:12;19.73;;;11.73;;
85506;SDS011;75915;41.988;21.460;2024-03-02T02:44:40;21.83;;;10.82;;
85506;SDS011;75915;41.988;21.460;2024-03-02T02:47:05;22.23;;;11.35;;
85506;SDS011;75915;41.988;21.460;2024-03-02T02:49:31;23.65;;;11.77;;
85506;SDS011;75915;41.988;21.460;2024-03-02T02:51:56;20.30;;;10.43;;
85506;SDS011;75915;41.988;21.460;2024-03-02T02:54:23;21.05;;;11.75;;
85506;SDS011;75915;41.988;21.460;2024-03-02T02:56:49;20.88;;;10.80;;
85506;SDS011;75915;41.988;21.460;2024-03-02T02:59:15;14.43;;;8.07;;
85506;SDS011;75915;41.988;21.460;2024-03-02T03:01:40;14.52;;;7.97;;
85506;SDS011;75915;41.988;21.460;2024-03-02T03:04:07;17.45;;;7.40;;
85506;SDS011;75915;41.988;21.460;2024-03-02T03:06:32;12.57;;;7.35;;
85506;SDS011;75915;41.988;21.460;2024-03-02T03:09:00;14.00;;;6.45;;
85506;SDS011;75915;41.988;21.460;2024-03-02T03:11:25;14.68;;;6.47;;
85506;SDS011;75915;41.988;21.460;2024-03-02T03:13:51;11.52;;;6.40;;
85506;SDS011;75915;41.988;21.460;2024-03-02T03:16:19;9.85;;;5.93;;
85506;SDS011;75915;41.988;21.460;2024-03-02T03:18:46;13.32;;;6.15;;
85506;SDS011;75915;41.988;21.460;2024-03-02T03:21:15;11.00;;;6.50;;
85506;SDS011;75915;41.988;21.460;2024-03-02T03:23:40;11.73;;;6.10;;
85506;SDS011;75915;41.988;21.460;2024-03-02T03:26:06;10.82;;;7.03;;
85506;SDS011;75915;41.988;21.460;2024-03-02T03:28:31;12.43;;;6.55;;
85506;SDS011;75915;41.988;21.460;2024-03-02T03:30:58;13.07;;;6.38;;
85506;SDS011;75915;41.988;21.460;2024-03-02T03:33:25;10.48;;;6.80;;
85506;SDS011;75915;41.988;21.460;2024-03-02T03:35:51;12.48;;;6.75;;
85506;SDS011;75915;41.988;21.460;2024-03-02T03:38:16;17.05;;;7.57;;
85506;SDS011;75915;41.988;21.460;2024-03-02T03:40:42;12.65;;;7.28;;
85506;SDS011;75915;41.988;21.460;2024-03-02T03:45:34;13.38;;;7.18;;
85506;SDS011;75915;41.988;21.460;2024-03-02T03:48:01;12.52;;;7.15;;
85506;SDS011;75915;41.988;21.460;2024-03-02T03:50:27;12.77;;;7.55;;
85506;SDS011;75915;41.988;21.460;2024-03-02T03:52:55;14.43;;;7.57;;
85506;SDS011;75915;41.988;21.460;2024-03-02T03:55:21;16.55;;;10.02;;
85506;SDS011;75915;41.988;21.460;2024-03-02T03:57:46;20.40;;;11.75;;
85506;SDS011;75915;41.988;21.460;2024-03-02T04:00:12;33.75;;;15.30;;
85506;SDS011;75915;41.988;21.460;2024-03-02T04:02:39;28.35;;;15.35;;
85506;SDS011;75915;41.988;21.460;2024-03-02T04:05:06;30.45;;;17.30;;
85506;SDS011;75915;41.988;21.460;2024-03-02T04:07:36;35.25;;;17.60;;
85506;SDS011;75915;41.988;21.460;2024-03-02T04:10:09;38.65;;;17.88;;
85506;SDS011;75915;41.988;21.460;2024-03-02T04:12:38;35.58;;;17.73;;
85506;SDS011;75915;41.988;21.460;2024-03-02T04:15:06;30.35;;;16.27;;
85506;SDS011;75915;41.988;21.460;2024-03-02T04:17:37;36.75;;;18.58;;
85506;SDS011;75915;41.988;21.460;2024-03-02T04:20:03;36.40;;;17.98;;
85506;SDS011;75915;41.988;21.460;2024-03-02T04:22:35;33.45;;;17.52;;
85506;SDS011;75915;41.988;21.460;2024-03-02T04:25:01;36.47;;;19.63;;
85506;SDS011;75915;41.988;21.460;2024-03-02T04:27:29;35.42;;;18.27;;
85506;SDS011;75915;41.988;21.460;2024-03-02T04:29:56;32.78;;;18.15;;
85506;SDS011;75915;41.988;21.460;2024-03-02T04:32:22;36.65;;;18.85;;
85506;SDS011;75915;41.988;21.460;2024-03-02T04:34:47;37.30;;;17.35;;
85506;SDS011;75915;41.988;21.460;2024-03-02T04:37:13;38.47;;;19.88;;
85506;SDS011;75915;41.988;21.460;2024-03-02T04:39:40;36.30;;;18.40;;
85506;SDS011;75915;41.988;21.460;2024-03-02T04:42:06;33.90;;;17.63;;
85506;SDS011;75915;41.988;21.460;2024-03-02T04:44:33;26.42;;;15.63;;
85506;SDS011;75915;41.988;21.460;2024-03-02T04:46:58;25.23;;;11.90;;
85506;SDS011;75915;41.988;21.460;2024-03-02T04:49:24;25.70;;;11.40;;
85506;SDS011;75915;41.988;21.460;2024-03-02T04:51:49;23.40;;;13.43;;
85506;SDS011;75915;41.988;21.460;2024-03-02T04:54:15;29.40;;;14.93;;
85506;SDS011;75915;41.988;21.460;2024-03-02T04:56:40;31.02;;;15.73;;
85506;SDS011;75915;41.988;21.460;2024-03-02T04:59:16;32.15;;;15.30;;
85506;SDS011;75915;41.988;21.460;2024-03-02T05:01:43;29.33;;;15.07;;
85506;SDS011;75915;41.988;21.460;2024-03-02T05:04:09;26.65;;;13.23;;
85506;SDS011;75915;41.988;21.460;2024-03-02T05:06:38;29.30;;;15.13;;
85506;SDS011;75915;41.988;21.460;2024-03-02T05:09:05;29.27;;;14.93;;
85506;SDS011;75915;41.988;21.460;2024-03-02T05:14:09;28.27;;;15.82;;
85506;SDS011;75915;41.988;21.460;2024-03-02T05:16:36;30.13;;;15.95;;
85506;SDS011;75915;41.988;21.460;2024-03-02T05:19:06;35.10;;;17.02;;
85506;SDS011;75915;41.988;21.460;2024-03-02T05:21:34;40.28;;;18.63;;
85506;SDS011;75915;41.988;21.460;2024-03-02T05:24:01;40.05;;;20.55;;
85506;SDS011;75915;41.988;21.460;2024-03-02T05:26:27;48.13;;;21.77;;
85506;SDS011;75915;41.988;21.460;2024-03-02T05:28:53;39.75;;;20.15;;
85506;SDS011;75915;41.988;21.460;2024-03-02T05:31:18;47.83;;;21.95;;
85506;SDS011;75915;41.988;21.460;2024-03-02T05:33:44;43.67;;;22.25;;
85506;SDS011;75915;41.988;21.460;2024-03-02T05:36:10;45.65;;;21.80;;
85506;SDS011;75915;41.988;21.460;2024-03-02T05:38:36;43.15;;;22.40;;
85506;SDS011;75915;41.988;21.460;2024-03-02T05:41:02;43.15;;;22.00;;
85506;SDS011;75915;41.988;21.460;2024-03-02T05:43:28;45.10;;;21.92;;
85506;SDS011;75915;41.988;21.460;2024-03-02T05:48:19;37.38;;;18.95;;
85506;SDS011;75915;41.988;21.460;2024-03-02T05:50:45;37.42;;;18.60;;
85506;SDS011;75915;41.988;21.460;2024-03-02T05:53:12;40.03;;;20.83;;
85506;SDS011;75915;41.988;21.460;2024-03-02T05:55:39;41.28;;;20.20;;
85506;SDS011;75915;41.988;21.460;2024-03-02T05:58:06;39.70;;;18.88;;
85506;SDS011;75915;41.988;21.460;2024-03-02T06:00:31;39.03;;;19.08;;
85506;SDS011;75915;41.988;21.460;2024-03-02T06:02:57;32.97;;;18.45;;
85506;SDS011;75915;41.988;21.460;2024-03-02T06:05:23;36.17;;;18.50;;
85506;SDS011;75915;41.988;21.460;2024-03-02T06:07:50;44.40;;;19.42;;
85506;SDS011;75915;41.988;21.460;2024-03-02T06:10:15;37.72;;;18.75;;
85506;SDS011;75915;41.988;21.460;2024-03-02T06:12:42;34.75;;;17.35;;
85506;SDS011;75915;41.988;21.460;2024-03-02T06:15:08;34.90;;;18.10;;
85506;SDS011;75915;41.988;21.460;2024-03-02T06:17:37;40.58;;;20.20;;
85506;SDS011;75915;41.988;21.460;2024-03-02T06:20:02;38.08;;;18.60;;
85506;SDS011;75915;41.988;21.460;2024-03-02T06:22:28;37.05;;;18.38;;
85506;SDS011;75915;41.988;21.460;2024-03-02T06:24:54;35.22;;;18.00;;
85506;SDS011;75915;41.988;21.460;2024-03-02T06:27:21;34.63;;;18.48;;
85506;SDS011;75915;41.988;21.460;2024-03-02T06:29:47;33.50;;;18.58;;
85506;SDS011;75915;41.988;21.460;2024-03-02T06:32:13;31.88;;;16.95;;
85506;SDS011;75915;41.988;21.460;2024-03-02T06:34:40;31.95;;;17.08;;
85506;SDS011;75915;41.988;21.460;2024-03-02T06:37:05;33.95;;;17.40;;
85506;SDS011;75915;41.988;21.460;2024-03-02T06:39:32;28.95;;;15.23;;
85506;SDS011;75915;41.988;21.460;2024-03-02T06:42:00;31.10;;;15.85;;
85506;SDS011;75915;41.988;21.460;2024-03-02T06:44:25;31.20;;;15.93;;
85506;SDS011;75915;41.988;21.460;2024-03-02T06:46:51;33.97;;;17.15;;
85506;SDS011;75915;41.988;21.460;2024-03-02T06:49:16;33.80;;;17.27;;
85506;SDS011;75915;41.988;21.460;2024-03-02T06:51:44;30.40;;;16.08;;
85506;SDS011;75915;41.988;21.460;2024-03-02T06:54:10;27.00;;;14.20;;
85506;SDS011;75915;41.988;21.460;2024-03-02T06:56:35;28.35;;;15.15;;
85506;SDS011;75915;41.988;21.460;2024-03-02T06:59:02;26.23;;;14.15;;
85506;SDS011;75915;41.988;21.460;2024-03-02T07:01:28;26.50;;;13.73;;
85506;SDS011;75915;41.988;21.460;2024-03-02T07:03:53;26.95;;;13.80;;
85506;SDS011;75915;41.988;21.460;2024-03-02T07:06:19;27.38;;;13.45;;
85506;SDS011;75915;41.988;21.460;2024-03-02T07:08:45;26.42;;;14.25;;
85506;SDS011;75915;41.988;21.460;2024-03-02T07:11:10;34.20;;;16.13;;
85506;SDS011;75915;41.988;21.460;2024-03-02T07:13:36;30.63;;;14.98;;
85506;SDS011;75915;41.988;21.460;2024-03-02T07:16:01;25.60;;;14.77;;
85506;SDS011;75915;41.988;21.460;2024-03-02T07:18:35;30.95;;;16.30;;
85506;SDS011;75915;41.988;21.460;2024-03-02T07:21:10;28.48;;;13.90;;
85506;SDS011;75915;41.988;21.460;2024-03-02T07:23:44;24.20;;;11.95;;
85506;SDS011;75915;41.988;21.460;2024-03-02T07:26:11;25.23;;;11.65;;
85506;SDS011;75915;41.988;21.460;2024-03-02T07:31:02;22.65;;;11.70;;
85506;SDS011;75915;41.988;21.460;2024-03-02T07:33:32;20.58;;;10.73;;
85506;SDS011;75915;41.988;21.460;2024-03-02T07:35:58;17.20;;;10.65;;
85506;SDS011;75915;41.988;21.460;2024-03-02T07:38:25;17.58;;;10.60;;
85506;SDS011;75915;41.988;21.460;2024-03-02T07:40:53;15.98;;;9.45;;
85506;SDS011;75915;41.988;21.460;2024-03-02T07:43:19;17.50;;;9.68;;
85506;SDS011;75915;41.988;21.460;2024-03-02T07:45:45;17.55;;;7.70;;
85506;SDS011;75915;41.988;21.460;2024-03-02T07:48:11;12.80;;;7.25;;
85506;SDS011;75915;41.988;21.460;2024-03-02T07:50:37;17.17;;;7.93;;
85506;SDS011;75915;41.988;21.460;2024-03-02T07:53:06;17.30;;;6.95;;
85506;SDS011;75915;41.988;21.460;2024-03-02T07:55:33;12.13;;;7.03;;
85506;SDS011;75915;41.988;21.460;2024-03-02T07:58:00;13.80;;;7.20;;
85506;SDS011;75915;41.988;21.460;2024-03-02T08:02:58;10.50;;;5.15;;
85506;SDS011;75915;41.988;21.460;2024-03-02T08:05:24;13.65;;;5.95;;
85506;SDS011;75915;41.988;21.460;2024-03-02T08:07:52;10.07;;;5.00;;
85506;SDS011;75915;41.988;21.460;2024-03-02T08:10:18;15.73;;;6.30;;
85506;SDS011;75915;41.988;21.460;2024-03-02T08:12:46;9.82;;;5.07;;
85506;SDS011;75915;41.988;21.460;2024-03-02T08:17:40;11.38;;;5.68;;
85506;SDS011;75915;41.988;21.460;2024-03-02T08:20:13;13.25;;;5.70;;
85506;SDS011;75915;41.988;21.460;2024-03-02T08:25:05;11.43;;;5.50;;
85506;SDS011;75915;41.988;21.460;2024-03-02T08:27:32;16.85;;;7.10;;
85506;SDS011;75915;41.988;21.460;2024-03-02T08:29:58;12.63;;;6.38;;
85506;SDS011;75915;41.988;21.460;2024-03-02T08:34:49;13.70;;;6.75;;
85506;SDS011;75915;41.988;21.460;2024-03-02T08:37:16;14.32;;;6.78;;
85506;SDS011;75915;41.988;21.460;2024-03-02T08:39:43;10.43;;;6.15;;
85506;SDS011;75915;41.988;21.460;2024-03-02T08:42:11;19.40;;;7.38;;
85506;SDS011;75915;41.988;21.460;2024-03-02T08:44:37;16.70;;;8.75;;
85506;SDS011;75915;41.988;21.460;2024-03-02T08:47:03;17.90;;;10.25;;
85506;SDS011;75915;41.988;21.460;2024-03-02T08:49:29;17.77;;;10.48;;
85506;SDS011;75915;41.988;21.460;2024-03-02T08:51:54;21.95;;;10.25;;
85506;SDS011;75915;41.988;21.460;2024-03-02T08:54:21;16.92;;;9.85;;
85506;SDS011;75915;41.988;21.460;2024-03-02T08:56:50;22.33;;;11.07;;
85506;SDS011;75915;41.988;21.460;2024-03-02T08:59:16;18.88;;;10.25;;
85506;SDS011;75915;41.988;21.460;2024-03-02T09:01:42;19.73;;;10.82;;
85506;SDS011;75915;41.988;21.460;2024-03-02T09:04:10;20.38;;;9.77;;
85506;SDS011;75915;41.988;21.460;2024-03-02T09:06:35;18.00;;;9.05;;
85506;SDS011;75915;41.988;21.460;2024-03-02T09:09:01;24.27;;;11.23;;
85506;SDS011;75915;41.988;21.460;2024-03-02T09:11:28;23.02;;;9.88;;
85506;SDS011;75915;41.988;21.460;2024-03-02T09:13:54;19.45;;;10.60;;
85506;SDS011;75915;41.988;21.460;2024-03-02T09:16:22;20.63;;;10.65;;
85506;SDS011;75915;41.988;21.460;2024-03-02T09:18:50;19.33;;;10.13;;
85506;SDS011;75915;41.988;21.460;2024-03-02T09:21:15;23.88;;;10.57;;
85506;SDS011;75915;41.988;21.460;2024-03-02T09:23:42;22.83;;;10.57;;
85506;SDS011;75915;41.988;21.460;2024-03-02T09:26:09;20.80;;;10.32;;
85506;SDS011;75915;41.988;21.460;2024-03-02T09:28:35;15.95;;;9.63;;
85506;SDS011;75915;41.988;21.460;2024-03-02T09:31:01;17.80;;;9.07;;
85506;SDS011;75915;41.988;21.460;2024-03-02T09:33:26;20.00;;;10.93;;
85506;SDS011;75915;41.988;21.460;2024-03-02T09:35:52;30.30;;;17.77;;
85506;SDS011;75915;41.988;21.460;2024-03-02T09:38:17;17.00;;;10.43;;
85506;SDS011;75915;41.988;21.460;2024-03-02T09:43:09;23.40;;;9.18;;
85506;SDS011;75915;41.988;21.460;2024-03-02T09:45:35;20.63;;;9.73;;
85506;SDS011;75915;41.988;21.460;2024-03-02T09:50:27;20.05;;;10.00;;
85506;SDS011;75915;41.988;21.460;2024-03-02T09:52:52;19.10;;;9.40;;
85506;SDS011;75915;41.988;21.460;2024-03-02T09:55:20;19.17;;;10.13;;
85506;SDS011;75915;41.988;21.460;2024-03-02T09:57:46;21.40;;;10.02;;
85506;SDS011;75915;41.988;21.460;2024-03-02T10:00:13;17.48;;;8.95;;
85506;SDS011;75915;41.988;21.460;2024-03-02T10:02:43;20.45;;;9.68;;
85506;SDS011;75915;41.988;21.460;2024-03-02T10:05:09;17.25;;;8.68;;
85506;SDS011;75915;41.988;21.460;2024-03-02T10:07:34;17.27;;;9.27;;
85506;SDS011;75915;41.988;21.460;2024-03-02T10:10:12;29.92;;;15.75;;
85506;SDS011;75915;41.988;21.460;2024-03-02T10:15:05;18.27;;;8.35;;
85506;SDS011;75915;41.988;21.460;2024-03-02T10:17:32;18.35;;;9.20;;
85506;SDS011;75915;41.988;21.460;2024-03-02T10:20:00;16.15;;;8.23;;
85506;SDS011;75915;41.988;21.460;2024-03-02T10:22:49;19.52;;;8.43;;
85506;SDS011;75915;41.988;21.460;2024-03-02T10:25:33;12.30;;;7.30;;
85506;SDS011;75915;41.988;21.460;2024-03-02T10:27:59;16.42;;;7.00;;
85506;SDS011;75915;41.988;21.460;2024-03-02T10:30:26;14.52;;;7.38;;
85506;SDS011;75915;41.988;21.460;2024-03-02T10:32:53;13.73;;;6.93;;
85506;SDS011;75915;41.988;21.460;2024-03-02T10:35:20;13.15;;;6.82;;
85506;SDS011;75915;41.988;21.460;2024-03-02T10:37:51;21.75;;;8.88;;
85506;SDS011;75915;41.988;21.460;2024-03-02T10:40:17;14.25;;;7.70;;
85506;SDS011;75915;41.988;21.460;2024-03-02T10:42:46;16.23;;;7.53;;
85506;SDS011;75915;41.988;21.460;2024-03-02T10:45:13;13.30;;;7.00;;
85506;SDS011;75915;41.988;21.460;2024-03-02T10:47:42;15.32;;;7.70;;
85506;SDS011;75915;41.988;21.460;2024-03-02T10:50:09;14.85;;;7.90;;
85506;SDS011;75915;41.988;21.460;2024-03-02T10:52:35;14.93;;;7.03;;
85506;SDS011;75915;41.988;21.460;2024-03-02T10:57:33;13.60;;;6.05;;
85506;SDS011;75915;41.988;21.460;2024-03-02T11:00:24;16.13;;;6.93;;
85506;SDS011;75915;41.988;21.460;2024-03-02T11:02:58;16.48;;;7.78;;
85506;SDS011;75915;41.988;21.460;2024-03-02T11:05:31;18.60;;;7.60;;
85506;SDS011;75915;41.988;21.460;2024-03-02T11:08:06;17.13;;;7.88;;
85506;SDS011;75915;41.988;21.460;2024-03-02T11:10:36;14.75;;;7.45;;
85506;SDS011;75915;41.988;21.460;2024-03-02T11:13:11;13.95;;;6.85;;
85506;SDS011;75915;41.988;21.460;2024-03-02T11:15:37;16.23;;;6.75;;
85506;SDS011;75915;41.988;21.460;2024-03-02T11:18:08;13.80;;;6.53;;
85506;SDS011;75915;41.988;21.460;2024-03-02T11:20:36;11.82;;;6.03;;
85506;SDS011;75915;41.988;21.460;2024-03-02T11:23:04;20.85;;;6.72;;
85506;SDS011;75915;41.988;21.460;2024-03-02T11:25:31;13.32;;;6.32;;
85506;SDS011;75915;41.988;21.460;2024-03-02T11:28:07;15.60;;;6.57;;
85506;SDS011;75915;41.988;21.460;2024-03-02T11:33:11;18.13;;;7.03;;
85506;SDS011;75915;41.988;21.460;2024-03-02T11:35:37;14.65;;;6.70;;
85506;SDS011;75915;41.988;21.460;2024-03-02T11:38:09;17.13;;;7.18;;
85506;SDS011;75915;41.988;21.460;2024-03-02T11:40:35;17.75;;;6.20;;
85506;SDS011;75915;41.988;21.460;2024-03-02T11:43:00;17.38;;;6.95;;
85506;SDS011;75915;41.988;21.460;2024-03-02T11:45:28;16.27;;;6.82;;
85506;SDS011;75915;41.988;21.460;2024-03-02T11:47:54;10.20;;;5.43;;
85506;SDS011;75915;41.988;21.460;2024-03-02T11:53:09;12.25;;;5.43;;
85506;SDS011;75915;41.988;21.460;2024-03-02T11:55:36;13.50;;;6.65;;
85506;SDS011;75915;41.988;21.460;2024-03-02T11:58:06;16.38;;;5.95;;
85506;SDS011;75915;41.988;21.460;2024-03-02T12:00:32;13.10;;;5.60;;
85506;SDS011;75915;41.988;21.460;2024-03-02T12:05:31;15.13;;;6.20;;
85506;SDS011;75915;41.988;21.460;2024-03-02T12:07:58;10.40;;;4.95;;
85506;SDS011;75915;41.988;21.460;2024-03-02T12:10:25;12.07;;;5.05;;
85506;SDS011;75915;41.988;21.460;2024-03-02T12:13:01;10.55;;;4.88;;
85506;SDS011;75915;41.988;21.460;2024-03-02T12:15:29;14.43;;;4.65;;
85506;SDS011;75915;41.988;21.460;2024-03-02T12:17:58;10.05;;;5.10;;
85506;SDS011;75915;41.988;21.460;2024-03-02T12:20:26;11.70;;;4.10;;
85506;SDS011;75915;41.988;21.460;2024-03-02T12:22:54;12.52;;;4.38;;
85506;SDS011;75915;41.988;21.460;2024-03-02T12:25:21;9.88;;;4.38;;
85506;SDS011;75915;41.988;21.460;2024-03-02T12:27:49;9.27;;;3.05;;
85506;SDS011;75915;41.988;21.460;2024-03-02T12:30:19;10.27;;;3.95;;
85506;SDS011;75915;41.988;21.460;2024-03-02T12:32:45;12.27;;;4.60;;
85506;SDS011;75915;41.988;21.460;2024-03-02T12:35:11;12.18;;;4.18;;
85506;SDS011;75915;41.988;21.460;2024-03-02T12:37:46;13.85;;;4.30;;
85506;SDS011;75915;41.988;21.460;2024-03-02T12:40:15;12.57;;;5.68;;
85506;SDS011;75915;41.988;21.460;2024-03-02T12:42:48;9.95;;;4.47;;
85506;SDS011;75915;41.988;21.460;2024-03-02T12:45:14;8.73;;;3.88;;
85506;SDS011;75915;41.988;21.460;2024-03-02T12:47:41;11.05;;;4.22;;
85506;SDS011;75915;41.988;21.460;2024-03-02T12:50:07;14.23;;;4.38;;
85506;SDS011;75915;41.988;21.460;2024-03-02T12:52:37;12.88;;;4.45;;
85506;SDS011;75915;41.988;21.460;2024-03-02T12:55:05;18.92;;;9.77;;
85506;SDS011;75915;41.988;21.460;2024-03-02T12:57:32;12.20;;;4.82;;
85506;SDS011;75915;41.988;21.460;2024-03-02T13:00:00;9.57;;;4.07;;
85506;SDS011;75915;41.988;21.460;2024-03-02T13:02:34;16.92;;;7.35;;
85506;SDS011;75915;41.988;21.460;2024-03-02T13:05:07;10.18;;;4.60;;
85506;SDS011;75915;41.988;21.460;2024-03-02T13:07:38;14.10;;;3.80;;
85506;SDS011;75915;41.988;21.460;2024-03-02T13:10:05;8.55;;;3.70;;
85506;SDS011;75915;41.988;21.460;2024-03-02T13:12:35;8.10;;;3.50;;
85506;SDS011;75915;41.988;21.460;2024-03-02T13:15:03;9.15;;;3.75;;
85506;SDS011;75915;41.988;21.460;2024-03-02T13:17:30;6.70;;;3.50;;
85506;SDS011;75915;41.988;21.460;2024-03-02T13:19:59;20.50;;;4.88;;
85506;SDS011;75915;41.988;21.460;2024-03-02T13:22:25;11.65;;;3.40;;
85506;SDS011;75915;41.988;21.460;2024-03-02T13:27:22;7.50;;;3.95;;
85506;SDS011;75915;41.988;21.460;2024-03-02T13:29:48;10.63;;;3.97;;
85506;SDS011;75915;41.988;21.460;2024-03-02T13:34:40;9.15;;;3.05;;
85506;SDS011;75915;41.988;21.460;2024-03-02T13:37:05;10.45;;;4.07;;
85506;SDS011;75915;41.988;21.460;2024-03-02T13:39:33;11.48;;;4.07;;
85506;SDS011;75915;41.988;21.460;2024-03-02T13:42:04;30.98;;;13.25;;
85506;SDS011;75915;41.988;21.460;2024-03-02T13:44:33;18.75;;;12.55;;
85506;SDS011;75915;41.988;21.460;2024-03-02T13:47:01;19.38;;;4.20;;
85506;SDS011;75915;41.988;21.460;2024-03-02T13:49:26;15.05;;;4.50;;
85506;SDS011;75915;41.988;21.460;2024-03-02T13:52:03;17.23;;;4.00;;
85506;SDS011;75915;41.988;21.460;2024-03-02T13:54:42;16.95;;;3.55;;
85506;SDS011;75915;41.988;21.460;2024-03-02T13:57:09;12.00;;;3.55;;
85506;SDS011;75915;41.988;21.460;2024-03-02T13:59:36;11.05;;;3.35;;
85506;SDS011;75915;41.988;21.460;2024-03-02T14:02:02;15.68;;;3.70;;
85506;SDS011;75915;41.988;21.460;2024-03-02T14:04:34;11.07;;;3.28;;
85506;SDS011;75915;41.988;21.460;2024-03-02T14:07:00;9.13;;;3.83;;
85506;SDS011;75915;41.988;21.460;2024-03-02T14:09:27;10.85;;;3.20;;
85506;SDS011;75915;41.988;21.460;2024-03-02T14:11:56;7.50;;;2.83;;
85506;SDS011;75915;41.988;21.460;2024-03-02T14:16:56;7.45;;;2.88;;
85506;SDS011;75915;41.988;21.460;2024-03-02T14:19:25;13.80;;;3.53;;
85506;SDS011;75915;41.988;21.460;2024-03-02T14:21:51;11.27;;;3.85;;
85506;SDS011;75915;41.988;21.460;2024-03-02T14:24:16;8.18;;;3.25;;
85506;SDS011;75915;41.988;21.460;2024-03-02T14:26:42;14.70;;;3.80;;
85506;SDS011;75915;41.988;21.460;2024-03-02T14:29:10;10.45;;;4.18;;
85506;SDS011;75915;41.988;21.460;2024-03-02T14:31:37;15.73;;;3.83;;
85506;SDS011;75915;41.988;21.460;2024-03-02T14:34:04;15.35;;;4.32;;
85506;SDS011;75915;41.988;21.460;2024-03-02T14:38:56;12.65;;;3.50;;
85506;SDS011;75915;41.988;21.460;2024-03-02T14:41:23;14.43;;;4.15;;
85506;SDS011;75915;41.988;21.460;2024-03-02T14:43:49;10.15;;;3.63;;
85506;SDS011;75915;41.988;21.460;2024-03-02T14:46:17;9.75;;;3.03;;
85506;SDS011;75915;41.988;21.460;2024-03-02T14:51:09;8.55;;;2.90;;
85506;SDS011;75915;41.988;21.460;2024-03-02T14:53:35;8.43;;;3.08;;
85506;SDS011;75915;41.988;21.460;2024-03-02T14:56:04;14.32;;;3.35;;
85506;SDS011;75915;41.988;21.460;2024-03-02T14:58:30;8.60;;;3.10;;
85506;SDS011;75915;41.988;21.460;2024-03-02T15:03:21;8.15;;;2.92;;
85506;SDS011;75915;41.988;21.460;2024-03-02T15:08:16;13.10;;;2.58;;
85506;SDS011;75915;41.988;21.460;2024-03-02T15:13:08;12.02;;;3.00;;
85506;SDS011;75915;41.988;21.460;2024-03-02T15:17:59;9.80;;;2.88;;
85506;SDS011;75915;41.988;21.460;2024-03-02T15:22:50;7.88;;;2.45;;
85506;SDS011;75915;41.988;21.460;2024-03-02T15:25:15;9.05;;;3.13;;